Lefkara — 3ETI6 — position and weather

sailwx.info

Track history (hours):
 
Tides and Currents Weather Stations Pressure Air Temp Water Temp Dewpoint Dewpoint Depression Visibility Wind Speed Wind Dir Waves Ship Positions

Lefkara

Last reported at 2017-Nov-09 14:03 UTC. Time now 2017-Nov-22 14:45 UTC.
Position N 25°32' W 079°34'.
Warning: this ship's position is 13 days out of date.

Length 183 m; draft 8 m.

Type: Tanker. MMSI: 370573000.

Date/timePositionNaut miles runAvg speedWind from/ knotsBaromVisibWave heightAir tempDewpointWater temp
2017-Nov-09 14:03N 25°32' W 079°34'211.6
2017-Nov-09 13:51N 25°34' W 079°34'411.3
2017-Nov-09 13:30N 25°38' W 079°35'610.9
2017-Nov-09 12:58N 25°44' W 079°35'510.9
2017-Nov-09 12:30N 25°49' W 079°35'611.5
2017-Nov-09 12:00N 25°54' W 079°32'  
2017-Nov-04 10:05N 25°46' W 079°31'115.0
2017-Nov-04 10:00N 25°45' W 079°31'814.9
2017-Nov-04 09:28N 25°37' W 079°31'  
Track history (hours):
 
Tides and Currents Weather Stations Pressure Air Temp Water Temp Dewpoint Dewpoint Depression Visibility Wind Speed Wind Dir Waves Ship Positions

Lefkara

Last reported at 2017-Nov-09 14:03 UTC. Time now 2017-Nov-22 14:45 UTC.
Position N 25°32' W 079°34'.
Warning: this ship's position is 13 days out of date.

Length 183 m; draft 8 m.

Type: Tanker. MMSI: 370573000.

Date/timePositionNaut miles runAvg speedWind from/ knotsBaromVisibWave heightAir tempDewpointWater temp
2017-Nov-09 14:03N 25°32' W 079°34'211.6
2017-Nov-09 13:51N 25°34' W 079°34'411.3
2017-Nov-09 13:30N 25°38' W 079°35'610.9
2017-Nov-09 12:58N 25°44' W 079°35'510.9
2017-Nov-09 12:30N 25°49' W 079°35'611.5
2017-Nov-09 12:00N 25°54' W 079°32'  
2017-Nov-04 10:05N 25°46' W 079°31'115.0
2017-Nov-04 10:00N 25°45' W 079°31'814.9
2017-Nov-04 09:28N 25°37' W 079°31'  

Dump ship's entire track history